sensor_id;sensor_type;location;lat;lon;timestamp;temperature;humidity
23499;DHT22;11926;48.120;11.562;2023-09-30T00:01:35;18.40;86.90
23499;DHT22;11926;48.120;11.562;2023-09-30T00:04:22;18.40;87.00
23499;DHT22;11926;48.120;11.562;2023-09-30T00:07:10;18.30;87.30
23499;DHT22;11926;48.120;11.562;2023-09-30T00:09:59;18.30;87.30
23499;DHT22;11926;48.120;11.562;2023-09-30T00:12:46;18.30;87.50
23499;DHT22;11926;48.120;11.562;2023-09-30T00:15:34;18.20;87.70
23499;DHT22;11926;48.120;11.562;2023-09-30T00:18:21;18.20;87.90
23499;DHT22;11926;48.120;11.562;2023-09-30T00:21:08;18.20;88.20
23499;DHT22;11926;48.120;11.562;2023-09-30T00:23:56;18.20;88.30
23499;DHT22;11926;48.120;11.562;2023-09-30T00:26:44;18.10;88.40
23499;DHT22;11926;48.120;11.562;2023-09-30T00:29:31;18.10;88.40
23499;DHT22;11926;48.120;11.562;2023-09-30T00:32:20;18.00;88.70
23499;DHT22;11926;48.120;11.562;2023-09-30T00:35:08;18.00;88.90
23499;DHT22;11926;48.120;11.562;2023-09-30T00:37:57;17.90;88.90
23499;DHT22;11926;48.120;11.562;2023-09-30T00:40:47;17.90;89.30
23499;DHT22;11926;48.120;11.562;2023-09-30T00:43:36;17.80;89.30
23499;DHT22;11926;48.120;11.562;2023-09-30T00:46:27;17.80;89.50
23499;DHT22;11926;48.120;11.562;2023-09-30T00:49:15;17.80;89.70
23499;DHT22;11926;48.120;11.562;2023-09-30T00:52:05;17.70;90.00
23499;DHT22;11926;48.120;11.562;2023-09-30T00:54:52;17.70;90.00
23499;DHT22;11926;48.120;11.562;2023-09-30T00:57:40;17.60;90.10
23499;DHT22;11926;48.120;11.562;2023-09-30T01:00:29;17.60;90.10
23499;DHT22;11926;48.120;11.562;2023-09-30T01:03:17;17.50;90.20
23499;DHT22;11926;48.120;11.562;2023-09-30T01:06:04;17.50;90.30
23499;DHT22;11926;48.120;11.562;2023-09-30T01:08:52;17.40;90.50
23499;DHT22;11926;48.120;11.562;2023-09-30T01:11:40;17.40;90.60
23499;DHT22;11926;48.120;11.562;2023-09-30T01:14:27;17.30;90.70
23499;DHT22;11926;48.120;11.562;2023-09-30T01:17:16;17.30;90.80
23499;DHT22;11926;48.120;11.562;2023-09-30T01:20:04;17.30;91.00
23499;DHT22;11926;48.120;11.562;2023-09-30T01:22:55;17.30;91.00
23499;DHT22;11926;48.120;11.562;2023-09-30T01:25:43;17.40;91.10
23499;DHT22;11926;48.120;11.562;2023-09-30T01:28:31;17.40;91.10
23499;DHT22;11926;48.120;11.562;2023-09-30T01:31:18;17.40;91.20
23499;DHT22;11926;48.120;11.562;2023-09-30T01:34:05;17.40;91.30
23499;DHT22;11926;48.120;11.562;2023-09-30T01:36:53;17.40;91.30
23499;DHT22;11926;48.120;11.562;2023-09-30T01:39:41;17.40;91.30
23499;DHT22;11926;48.120;11.562;2023-09-30T01:42:30;17.30;91.40
23499;DHT22;11926;48.120;11.562;2023-09-30T01:45:21;17.30;91.50
23499;DHT22;11926;48.120;11.562;2023-09-30T01:48:09;17.30;91.60
23499;DHT22;11926;48.120;11.562;2023-09-30T01:50:57;17.20;91.60
23499;DHT22;11926;48.120;11.562;2023-09-30T01:53:44;17.30;91.80
23499;DHT22;11926;48.120;11.562;2023-09-30T01:56:32;17.20;91.80
23499;DHT22;11926;48.120;11.562;2023-09-30T01:59:20;17.20;91.80
23499;DHT22;11926;48.120;11.562;2023-09-30T02:02:07;17.10;91.90
23499;DHT22;11926;48.120;11.562;2023-09-30T02:04:57;17.10;92.00
23499;DHT22;11926;48.120;11.562;2023-09-30T02:07:45;17.00;92.10
23499;DHT22;11926;48.120;11.562;2023-09-30T02:10:32;17.00;92.10
23499;DHT22;11926;48.120;11.562;2023-09-30T02:13:21;16.90;92.30
23499;DHT22;11926;48.120;11.562;2023-09-30T02:16:12;16.90;92.40
23499;DHT22;11926;48.120;11.562;2023-09-30T02:18:59;16.80;92.90
23499;DHT22;11926;48.120;11.562;2023-09-30T02:21:46;16.80;92.70
23499;DHT22;11926;48.120;11.562;2023-09-30T02:24:34;16.70;92.80
23499;DHT22;11926;48.120;11.562;2023-09-30T02:27:21;16.80;93.00
23499;DHT22;11926;48.120;11.562;2023-09-30T02:30:12;16.80;93.20
23499;DHT22;11926;48.120;11.562;2023-09-30T02:33:00;16.80;93.20
23499;DHT22;11926;48.120;11.562;2023-09-30T02:35:48;16.80;93.20
23499;DHT22;11926;48.120;11.562;2023-09-30T02:38:36;16.90;93.20
23499;DHT22;11926;48.120;11.562;2023-09-30T02:41:24;16.90;93.20
23499;DHT22;11926;48.120;11.562;2023-09-30T02:44:11;16.90;93.30
23499;DHT22;11926;48.120;11.562;2023-09-30T02:47:01;17.00;93.40
23499;DHT22;11926;48.120;11.562;2023-09-30T02:49:49;17.00;93.50
23499;DHT22;11926;48.120;11.562;2023-09-30T02:52:36;17.00;93.50
23499;DHT22;11926;48.120;11.562;2023-09-30T02:55:25;17.00;93.50
23499;DHT22;11926;48.120;11.562;2023-09-30T02:58:12;17.00;93.50
23499;DHT22;11926;48.120;11.562;2023-09-30T03:01:00;16.90;93.50
23499;DHT22;11926;48.120;11.562;2023-09-30T03:03:49;16.90;93.60
23499;DHT22;11926;48.120;11.562;2023-09-30T03:06:38;16.80;93.60
23499;DHT22;11926;48.120;11.562;2023-09-30T03:09:25;16.80;93.70
23499;DHT22;11926;48.120;11.562;2023-09-30T03:12:13;16.80;93.90
23499;DHT22;11926;48.120;11.562;2023-09-30T03:15:01;16.80;93.80
23499;DHT22;11926;48.120;11.562;2023-09-30T03:17:50;16.80;93.80
23499;DHT22;11926;48.120;11.562;2023-09-30T03:20:41;16.80;93.90
23499;DHT22;11926;48.120;11.562;2023-09-30T03:23:29;16.70;93.90
23499;DHT22;11926;48.120;11.562;2023-09-30T03:26:17;16.70;94.00
23499;DHT22;11926;48.120;11.562;2023-09-30T03:29:05;16.70;94.20
23499;DHT22;11926;48.120;11.562;2023-09-30T03:31:52;16.70;94.20
23499;DHT22;11926;48.120;11.562;2023-09-30T03:34:39;16.60;94.20
23499;DHT22;11926;48.120;11.562;2023-09-30T03:37:32;16.60;94.30
23499;DHT22;11926;48.120;11.562;2023-09-30T03:40:20;16.60;94.30
23499;DHT22;11926;48.120;11.562;2023-09-30T03:43:19;16.60;94.40
23499;DHT22;11926;48.120;11.562;2023-09-30T03:46:07;16.60;94.60
23499;DHT22;11926;48.120;11.562;2023-09-30T03:48:54;16.60;94.70
23499;DHT22;11926;48.120;11.562;2023-09-30T03:51:41;16.60;94.60
23499;DHT22;11926;48.120;11.562;2023-09-30T03:54:30;16.60;94.60
23499;DHT22;11926;48.120;11.562;2023-09-30T03:57:17;16.60;94.70
23499;DHT22;11926;48.120;11.562;2023-09-30T04:00:06;16.70;94.80
23499;DHT22;11926;48.120;11.562;2023-09-30T04:02:57;16.70;94.80
23499;DHT22;11926;48.120;11.562;2023-09-30T04:05:45;16.70;94.80
23499;DHT22;11926;48.120;11.562;2023-09-30T04:08:33;16.70;94.80
23499;DHT22;11926;48.120;11.562;2023-09-30T04:11:23;16.70;94.80
23499;DHT22;11926;48.120;11.562;2023-09-30T04:14:10;16.80;94.70
23499;DHT22;11926;48.120;11.562;2023-09-30T04:16:57;16.80;94.70
23499;DHT22;11926;48.120;11.562;2023-09-30T04:19:45;16.80;94.90
23499;DHT22;11926;48.120;11.562;2023-09-30T04:22:36;16.80;94.80
23499;DHT22;11926;48.120;11.562;2023-09-30T04:25:24;16.90;94.80
23499;DHT22;11926;48.120;11.562;2023-09-30T04:28:13;16.90;94.80
23499;DHT22;11926;48.120;11.562;2023-09-30T04:31:01;16.90;95.10
23499;DHT22;11926;48.120;11.562;2023-09-30T04:33:50;16.90;94.80
23499;DHT22;11926;48.120;11.562;2023-09-30T04:36:39;16.90;94.80
23499;DHT22;11926;48.120;11.562;2023-09-30T04:39:27;16.90;94.70
23499;DHT22;11926;48.120;11.562;2023-09-30T04:42:14;16.90;94.80
23499;DHT22;11926;48.120;11.562;2023-09-30T04:45:05;16.90;94.80
23499;DHT22;11926;48.120;11.562;2023-09-30T04:47:55;16.80;94.70
23499;DHT22;11926;48.120;11.562;2023-09-30T04:50:43;16.80;94.80
23499;DHT22;11926;48.120;11.562;2023-09-30T04:53:31;16.70;94.80
23499;DHT22;11926;48.120;11.562;2023-09-30T04:56:19;16.70;94.80
23499;DHT22;11926;48.120;11.562;2023-09-30T04:59:07;16.60;94.90
23499;DHT22;11926;48.120;11.562;2023-09-30T05:01:56;16.50;95.00
23499;DHT22;11926;48.120;11.562;2023-09-30T05:04:43;16.50;95.00
23499;DHT22;11926;48.120;11.562;2023-09-30T05:07:30;16.40;95.10
23499;DHT22;11926;48.120;11.562;2023-09-30T05:10:17;16.30;95.10
23499;DHT22;11926;48.120;11.562;2023-09-30T05:13:04;16.20;95.20
23499;DHT22;11926;48.120;11.562;2023-09-30T05:15:52;16.20;95.30
23499;DHT22;11926;48.120;11.562;2023-09-30T05:18:41;16.10;95.30
23499;DHT22;11926;48.120;11.562;2023-09-30T05:21:29;16.10;95.40
23499;DHT22;11926;48.120;11.562;2023-09-30T05:24:16;16.00;95.50
23499;DHT22;11926;48.120;11.562;2023-09-30T05:27:05;16.10;95.70
23499;DHT22;11926;48.120;11.562;2023-09-30T05:29:52;16.10;95.80
23499;DHT22;11926;48.120;11.562;2023-09-30T05:32:40;16.10;95.90
23499;DHT22;11926;48.120;11.562;2023-09-30T05:35:29;16.20;96.00
23499;DHT22;11926;48.120;11.562;2023-09-30T05:38:18;16.20;96.00
23499;DHT22;11926;48.120;11.562;2023-09-30T05:41:06;16.20;96.00
23499;DHT22;11926;48.120;11.562;2023-09-30T05:43:53;16.20;96.00
23499;DHT22;11926;48.120;11.562;2023-09-30T05:46:41;16.10;96.00
23499;DHT22;11926;48.120;11.562;2023-09-30T05:49:29;16.10;96.20
23499;DHT22;11926;48.120;11.562;2023-09-30T05:52:18;16.10;96.40
23499;DHT22;11926;48.120;11.562;2023-09-30T05:55:06;16.10;96.50
23499;DHT22;11926;48.120;11.562;2023-09-30T05:57:53;16.20;96.60
23499;DHT22;11926;48.120;11.562;2023-09-30T06:00:41;16.30;96.70
23499;DHT22;11926;48.120;11.562;2023-09-30T06:03:29;16.40;97.10
23499;DHT22;11926;48.120;11.562;2023-09-30T06:06:16;16.50;96.60
23499;DHT22;11926;48.120;11.562;2023-09-30T06:09:05;16.50;96.60
23499;DHT22;11926;48.120;11.562;2023-09-30T06:11:54;16.60;96.50
23499;DHT22;11926;48.120;11.562;2023-09-30T06:14:41;16.70;96.50
23499;DHT22;11926;48.120;11.562;2023-09-30T06:17:30;16.80;96.20
23499;DHT22;11926;48.120;11.562;2023-09-30T06:20:19;16.90;96.10
23499;DHT22;11926;48.120;11.562;2023-09-30T06:23:08;16.90;96.00
23499;DHT22;11926;48.120;11.562;2023-09-30T06:25:59;16.90;95.80
23499;DHT22;11926;48.120;11.562;2023-09-30T06:28:48;17.00;95.60
23499;DHT22;11926;48.120;11.562;2023-09-30T06:31:35;17.00;95.40
23499;DHT22;11926;48.120;11.562;2023-09-30T06:34:22;17.10;95.30
23499;DHT22;11926;48.120;11.562;2023-09-30T06:37:10;17.10;95.00
23499;DHT22;11926;48.120;11.562;2023-09-30T06:39:57;17.10;94.90
23499;DHT22;11926;48.120;11.562;2023-09-30T06:42:47;17.20;94.70
23499;DHT22;11926;48.120;11.562;2023-09-30T06:45:35;17.30;94.60
23499;DHT22;11926;48.120;11.562;2023-09-30T06:48:28;17.40;94.50
23499;DHT22;11926;48.120;11.562;2023-09-30T06:51:15;17.50;94.30
23499;DHT22;11926;48.120;11.562;2023-09-30T06:54:04;17.60;93.90
23499;DHT22;11926;48.120;11.562;2023-09-30T06:56:53;17.80;93.70
23499;DHT22;11926;48.120;11.562;2023-09-30T06:59:42;17.90;93.40
23499;DHT22;11926;48.120;11.562;2023-09-30T07:02:29;18.00;93.10
23499;DHT22;11926;48.120;11.562;2023-09-30T07:05:16;18.20;93.20
23499;DHT22;11926;48.120;11.562;2023-09-30T07:08:04;18.20;92.50
23499;DHT22;11926;48.120;11.562;2023-09-30T07:10:51;18.20;92.40
23499;DHT22;11926;48.120;11.562;2023-09-30T07:13:39;18.20;92.40
23499;DHT22;11926;48.120;11.562;2023-09-30T07:16:30;18.30;92.00
23499;DHT22;11926;48.120;11.562;2023-09-30T07:19:17;18.30;92.20
23499;DHT22;11926;48.120;11.562;2023-09-30T07:22:04;18.40;91.80
23499;DHT22;11926;48.120;11.562;2023-09-30T07:24:51;18.30;91.80
23499;DHT22;11926;48.120;11.562;2023-09-30T07:27:39;18.40;91.70
23499;DHT22;11926;48.120;11.562;2023-09-30T07:30:26;18.50;91.70
23499;DHT22;11926;48.120;11.562;2023-09-30T07:33:15;18.50;91.50
23499;DHT22;11926;48.120;11.562;2023-09-30T07:36:03;18.70;91.20
23499;DHT22;11926;48.120;11.562;2023-09-30T07:38:50;18.70;90.90
23499;DHT22;11926;48.120;11.562;2023-09-30T07:41:38;18.80;91.20
23499;DHT22;11926;48.120;11.562;2023-09-30T07:44:26;18.80;90.80
23499;DHT22;11926;48.120;11.562;2023-09-30T07:47:13;18.80;90.90
23499;DHT22;11926;48.120;11.562;2023-09-30T07:50:03;18.90;90.60
23499;DHT22;11926;48.120;11.562;2023-09-30T07:53:02;18.90;90.50
23499;DHT22;11926;48.120;11.562;2023-09-30T07:55:49;19.00;90.40
23499;DHT22;11926;48.120;11.562;2023-09-30T07:58:36;19.00;90.40
23499;DHT22;11926;48.120;11.562;2023-09-30T08:01:23;19.10;90.10
23499;DHT22;11926;48.120;11.562;2023-09-30T08:04:11;19.30;90.00
23499;DHT22;11926;48.120;11.562;2023-09-30T08:07:00;19.30;89.70
23499;DHT22;11926;48.120;11.562;2023-09-30T08:09:47;19.40;89.90
23499;DHT22;11926;48.120;11.562;2023-09-30T08:12:35;19.60;89.00
23499;DHT22;11926;48.120;11.562;2023-09-30T08:15:22;19.70;88.80
23499;DHT22;11926;48.120;11.562;2023-09-30T08:18:09;19.80;88.20
23499;DHT22;11926;48.120;11.562;2023-09-30T08:20:57;19.90;87.80
23499;DHT22;11926;48.120;11.562;2023-09-30T08:23:46;20.00;87.00
23499;DHT22;11926;48.120;11.562;2023-09-30T08:26:33;20.00;86.20
23499;DHT22;11926;48.120;11.562;2023-09-30T08:29:21;20.10;86.20
23499;DHT22;11926;48.120;11.562;2023-09-30T08:32:10;20.10;85.60
23499;DHT22;11926;48.120;11.562;2023-09-30T08:34:57;20.10;85.20
23499;DHT22;11926;48.120;11.562;2023-09-30T08:37:44;20.20;85.20
23499;DHT22;11926;48.120;11.562;2023-09-30T08:40:33;20.40;84.80
23499;DHT22;11926;48.120;11.562;2023-09-30T08:43:24;20.40;84.00
23499;DHT22;11926;48.120;11.562;2023-09-30T08:46:14;20.40;83.90
23499;DHT22;11926;48.120;11.562;2023-09-30T08:49:03;20.50;83.90
23499;DHT22;11926;48.120;11.562;2023-09-30T08:51:51;20.60;84.20
23499;DHT22;11926;48.120;11.562;2023-09-30T08:54:40;20.80;83.20
23499;DHT22;11926;48.120;11.562;2023-09-30T08:57:30;21.00;83.10
23499;DHT22;11926;48.120;11.562;2023-09-30T09:00:18;21.20;81.60
23499;DHT22;11926;48.120;11.562;2023-09-30T09:03:07;21.30;80.50
23499;DHT22;11926;48.120;11.562;2023-09-30T09:05:55;21.40;79.80
23499;DHT22;11926;48.120;11.562;2023-09-30T09:08:43;21.50;80.20
23499;DHT22;11926;48.120;11.562;2023-09-30T09:11:37;21.60;79.30
23499;DHT22;11926;48.120;11.562;2023-09-30T09:14:38;21.50;79.40
23499;DHT22;11926;48.120;11.562;2023-09-30T09:17:40;21.50;78.70
23499;DHT22;11926;48.120;11.562;2023-09-30T09:20:28;21.50;79.20
23499;DHT22;11926;48.120;11.562;2023-09-30T09:23:16;21.50;78.70
23499;DHT22;11926;48.120;11.562;2023-09-30T09:26:03;21.50;78.20
23499;DHT22;11926;48.120;11.562;2023-09-30T09:28:57;21.50;77.30
23499;DHT22;11926;48.120;11.562;2023-09-30T09:31:46;21.50;77.50
23499;DHT22;11926;48.120;11.562;2023-09-30T09:34:33;21.30;78.00
23499;DHT22;11926;48.120;11.562;2023-09-30T09:37:21;21.40;77.50
23499;DHT22;11926;48.120;11.562;2023-09-30T09:40:09;21.40;77.60
23499;DHT22;11926;48.120;11.562;2023-09-30T09:43:00;21.40;77.40
23499;DHT22;11926;48.120;11.562;2023-09-30T09:45:51;21.40;78.00
23499;DHT22;11926;48.120;11.562;2023-09-30T09:48:40;21.50;77.80
23499;DHT22;11926;48.120;11.562;2023-09-30T09:51:28;21.80;77.20
23499;DHT22;11926;48.120;11.562;2023-09-30T09:54:17;21.90;76.60
23499;DHT22;11926;48.120;11.562;2023-09-30T09:57:05;22.10;75.70
23499;DHT22;11926;48.120;11.562;2023-09-30T09:59:56;22.30;75.30
23499;DHT22;11926;48.120;11.562;2023-09-30T10:02:45;22.80;74.00
23499;DHT22;11926;48.120;11.562;2023-09-30T10:05:34;23.60;71.80
23499;DHT22;11926;48.120;11.562;2023-09-30T10:08:31;24.50;70.00
23499;DHT22;11926;48.120;11.562;2023-09-30T10:11:19;24.80;67.70
23499;DHT22;11926;48.120;11.562;2023-09-30T10:14:08;24.70;67.20
23499;DHT22;11926;48.120;11.562;2023-09-30T10:17:00;24.40;66.80
23499;DHT22;11926;48.120;11.562;2023-09-30T10:20:07;24.60;67.70
23499;DHT22;11926;48.120;11.562;2023-09-30T10:23:19;24.80;66.80
23499;DHT22;11926;48.120;11.562;2023-09-30T10:26:16;25.20;65.20
23499;DHT22;11926;48.120;11.562;2023-09-30T10:29:09;24.90;64.30
23499;DHT22;11926;48.120;11.562;2023-09-30T10:31:56;24.60;64.80
23499;DHT22;11926;48.120;11.562;2023-09-30T10:34:48;24.50;66.40
23499;DHT22;11926;48.120;11.562;2023-09-30T10:37:37;24.60;65.50
23499;DHT22;11926;48.120;11.562;2023-09-30T10:40:28;24.60;64.90
23499;DHT22;11926;48.120;11.562;2023-09-30T10:43:29;24.70;62.80
23499;DHT22;11926;48.120;11.562;2023-09-30T10:46:32;24.90;63.30
23499;DHT22;11926;48.120;11.562;2023-09-30T10:49:32;25.50;62.50
23499;DHT22;11926;48.120;11.562;2023-09-30T10:52:22;26.00;60.70
23499;DHT22;11926;48.120;11.562;2023-09-30T10:55:18;26.00;59.50
23499;DHT22;11926;48.120;11.562;2023-09-30T10:58:07;25.80;59.10
23499;DHT22;11926;48.120;11.562;2023-09-30T11:00:55;25.50;59.20
23499;DHT22;11926;48.120;11.562;2023-09-30T11:03:44;25.30;58.90
23499;DHT22;11926;48.120;11.562;2023-09-30T11:06:33;25.00;59.60
23499;DHT22;11926;48.120;11.562;2023-09-30T11:09:22;24.80;60.70
23499;DHT22;11926;48.120;11.562;2023-09-30T11:12:13;24.70;61.20
23499;DHT22;11926;48.120;11.562;2023-09-30T11:15:04;24.60;61.70
23499;DHT22;11926;48.120;11.562;2023-09-30T11:18:13;24.40;61.60
23499;DHT22;11926;48.120;11.562;2023-09-30T11:21:06;24.30;62.60
23499;DHT22;11926;48.120;11.562;2023-09-30T11:23:54;24.30;63.40
23499;DHT22;11926;48.120;11.562;2023-09-30T11:27:22;24.20;64.10
23499;DHT22;11926;48.120;11.562;2023-09-30T11:30:13;24.20;63.50
23499;DHT22;11926;48.120;11.562;2023-09-30T11:33:01;24.20;63.00
23499;DHT22;11926;48.120;11.562;2023-09-30T11:35:57;24.30;62.20
23499;DHT22;11926;48.120;11.562;2023-09-30T11:38:45;24.30;62.50
23499;DHT22;11926;48.120;11.562;2023-09-30T11:41:35;24.30;62.00
23499;DHT22;11926;48.120;11.562;2023-09-30T11:44:24;24.30;61.60
23499;DHT22;11926;48.120;11.562;2023-09-30T11:47:15;24.20;61.70
23499;DHT22;11926;48.120;11.562;2023-09-30T11:50:04;24.20;61.20
23499;DHT22;11926;48.120;11.562;2023-09-30T11:52:53;24.20;62.00
23499;DHT22;11926;48.120;11.562;2023-09-30T11:55:41;24.40;61.10
23499;DHT22;11926;48.120;11.562;2023-09-30T11:58:28;24.40;60.70
23499;DHT22;11926;48.120;11.562;2023-09-30T12:01:18;24.50;61.10
23499;DHT22;11926;48.120;11.562;2023-09-30T12:04:09;24.40;60.60
23499;DHT22;11926;48.120;11.562;2023-09-30T12:06:58;24.50;59.60
23499;DHT22;11926;48.120;11.562;2023-09-30T12:09:47;24.50;59.70
23499;DHT22;11926;48.120;11.562;2023-09-30T12:12:34;24.50;59.80
23499;DHT22;11926;48.120;11.562;2023-09-30T12:15:21;24.50;60.00
23499;DHT22;11926;48.120;11.562;2023-09-30T12:18:09;24.40;59.20
23499;DHT22;11926;48.120;11.562;2023-09-30T12:21:03;24.30;59.90
23499;DHT22;11926;48.120;11.562;2023-09-30T12:23:52;24.40;60.70
23499;DHT22;11926;48.120;11.562;2023-09-30T12:26:39;24.40;60.90
23499;DHT22;11926;48.120;11.562;2023-09-30T12:29:27;24.50;59.70
23499;DHT22;11926;48.120;11.562;2023-09-30T12:32:14;24.60;59.20
23499;DHT22;11926;48.120;11.562;2023-09-30T12:35:04;24.60;59.30
23499;DHT22;11926;48.120;11.562;2023-09-30T12:37:52;24.70;58.00
23499;DHT22;11926;48.120;11.562;2023-09-30T12:40:40;24.70;57.90
23499;DHT22;11926;48.120;11.562;2023-09-30T12:43:29;24.70;57.90
23499;DHT22;11926;48.120;11.562;2023-09-30T12:46:16;24.80;58.30
23499;DHT22;11926;48.120;11.562;2023-09-30T12:49:04;24.90;58.20
23499;DHT22;11926;48.120;11.562;2023-09-30T12:51:51;25.00;57.20
23499;DHT22;11926;48.120;11.562;2023-09-30T12:54:40;25.00;56.70
23499;DHT22;11926;48.120;11.562;2023-09-30T12:57:27;24.90;56.60
23499;DHT22;11926;48.120;11.562;2023-09-30T13:00:15;24.70;56.70
23499;DHT22;11926;48.120;11.562;2023-09-30T13:03:05;24.60;56.90
23499;DHT22;11926;48.120;11.562;2023-09-30T13:05:54;24.60;57.40
23499;DHT22;11926;48.120;11.562;2023-09-30T13:08:41;24.50;56.90
23499;DHT22;11926;48.120;11.562;2023-09-30T13:11:30;24.50;57.60
23499;DHT22;11926;48.120;11.562;2023-09-30T13:14:21;24.50;57.90
23499;DHT22;11926;48.120;11.562;2023-09-30T13:17:10;24.40;57.90
23499;DHT22;11926;48.120;11.562;2023-09-30T13:20:00;24.40;58.90
23499;DHT22;11926;48.120;11.562;2023-09-30T13:22:51;24.60;58.60
23499;DHT22;11926;48.120;11.562;2023-09-30T13:25:38;24.70;57.60
23499;DHT22;11926;48.120;11.562;2023-09-30T13:28:27;24.70;57.30
23499;DHT22;11926;48.120;11.562;2023-09-30T13:31:15;24.60;58.20
23499;DHT22;11926;48.120;11.562;2023-09-30T13:34:03;24.60;57.60
23499;DHT22;11926;48.120;11.562;2023-09-30T13:36:50;24.60;57.60
23499;DHT22;11926;48.120;11.562;2023-09-30T13:39:37;24.60;57.70
23499;DHT22;11926;48.120;11.562;2023-09-30T13:42:25;24.60;58.10
23499;DHT22;11926;48.120;11.562;2023-09-30T13:45:14;24.50;57.30
23499;DHT22;11926;48.120;11.562;2023-09-30T13:48:04;24.40;57.60
23499;DHT22;11926;48.120;11.562;2023-09-30T13:50:52;24.30;58.60
23499;DHT22;11926;48.120;11.562;2023-09-30T13:53:39;24.20;59.30
23499;DHT22;11926;48.120;11.562;2023-09-30T13:56:29;24.20;58.30
23499;DHT22;11926;48.120;11.562;2023-09-30T13:59:17;24.20;60.70
23499;DHT22;11926;48.120;11.562;2023-09-30T14:02:05;24.20;59.90
23499;DHT22;11926;48.120;11.562;2023-09-30T14:04:53;24.30;59.90
23499;DHT22;11926;48.120;11.562;2023-09-30T14:07:42;24.30;59.90
23499;DHT22;11926;48.120;11.562;2023-09-30T14:10:30;24.20;59.20
23499;DHT22;11926;48.120;11.562;2023-09-30T14:13:17;24.10;59.10
23499;DHT22;11926;48.120;11.562;2023-09-30T14:16:04;24.10;59.60
23499;DHT22;11926;48.120;11.562;2023-09-30T14:18:54;24.00;60.00
23499;DHT22;11926;48.120;11.562;2023-09-30T14:21:45;24.00;60.20
23499;DHT22;11926;48.120;11.562;2023-09-30T14:24:32;23.90;59.80
23499;DHT22;11926;48.120;11.562;2023-09-30T14:27:20;23.80;61.00
23499;DHT22;11926;48.120;11.562;2023-09-30T14:30:07;23.70;62.30
23499;DHT22;11926;48.120;11.562;2023-09-30T14:32:55;23.60;61.80
23499;DHT22;11926;48.120;11.562;2023-09-30T14:35:46;23.50;62.30
23499;DHT22;11926;48.120;11.562;2023-09-30T14:38:35;23.40;61.80
23499;DHT22;11926;48.120;11.562;2023-09-30T14:41:23;23.30;61.40
23499;DHT22;11926;48.120;11.562;2023-09-30T14:44:10;23.30;62.30
23499;DHT22;11926;48.120;11.562;2023-09-30T14:46:58;23.30;62.20
23499;DHT22;11926;48.120;11.562;2023-09-30T14:49:45;23.20;62.80
23499;DHT22;11926;48.120;11.562;2023-09-30T14:52:34;23.20;63.40
23499;DHT22;11926;48.120;11.562;2023-09-30T14:55:21;23.10;62.00
23499;DHT22;11926;48.120;11.562;2023-09-30T14:58:09;23.00;62.90
23499;DHT22;11926;48.120;11.562;2023-09-30T15:00:57;23.10;62.90
23499;DHT22;11926;48.120;11.562;2023-09-30T15:03:44;23.00;63.00
23499;DHT22;11926;48.120;11.562;2023-09-30T15:06:32;23.00;63.10
23499;DHT22;11926;48.120;11.562;2023-09-30T15:09:22;23.00;62.30
23499;DHT22;11926;48.120;11.562;2023-09-30T15:12:09;23.00;63.30
23499;DHT22;11926;48.120;11.562;2023-09-30T15:14:56;22.90;63.20
23499;DHT22;11926;48.120;11.562;2023-09-30T15:17:43;22.90;63.40
23499;DHT22;11926;48.120;11.562;2023-09-30T15:20:37;22.90;63.60
23499;DHT22;11926;48.120;11.562;2023-09-30T15:23:26;22.90;64.20
23499;DHT22;11926;48.120;11.562;2023-09-30T15:26:15;22.80;64.50
23499;DHT22;11926;48.120;11.562;2023-09-30T15:29:03;22.80;64.20
23499;DHT22;11926;48.120;11.562;2023-09-30T15:31:50;22.80;63.80
23499;DHT22;11926;48.120;11.562;2023-09-30T15:34:38;22.80;64.30
23499;DHT22;11926;48.120;11.562;2023-09-30T15:37:26;22.70;64.50
23499;DHT22;11926;48.120;11.562;2023-09-30T15:40:13;22.70;64.40
23499;DHT22;11926;48.120;11.562;2023-09-30T15:43:04;22.70;63.70
23499;DHT22;11926;48.120;11.562;2023-09-30T15:45:52;22.50;63.90
23499;DHT22;11926;48.120;11.562;2023-09-30T15:48:40;22.50;64.10
23499;DHT22;11926;48.120;11.562;2023-09-30T15:51:27;22.40;63.90
23499;DHT22;11926;48.120;11.562;2023-09-30T15:54:15;22.40;65.50
23499;DHT22;11926;48.120;11.562;2023-09-30T15:57:03;22.30;65.90
23499;DHT22;11926;48.120;11.562;2023-09-30T15:59:51;22.30;65.40
23499;DHT22;11926;48.120;11.562;2023-09-30T16:02:38;22.10;65.40
23499;DHT22;11926;48.120;11.562;2023-09-30T16:05:25;22.10;66.50
23499;DHT22;11926;48.120;11.562;2023-09-30T16:08:14;22.10;66.80
23499;DHT22;11926;48.120;11.562;2023-09-30T16:11:01;22.00;66.30
23499;DHT22;11926;48.120;11.562;2023-09-30T16:13:49;21.90;67.50
23499;DHT22;11926;48.120;11.562;2023-09-30T16:16:39;21.80;67.30
23499;DHT22;11926;48.120;11.562;2023-09-30T16:19:27;21.80;67.60
23499;DHT22;11926;48.120;11.562;2023-09-30T16:22:14;21.70;68.50
23499;DHT22;11926;48.120;11.562;2023-09-30T16:25:02;21.60;69.00
23499;DHT22;11926;48.120;11.562;2023-09-30T16:27:51;21.60;69.40
23499;DHT22;11926;48.120;11.562;2023-09-30T16:30:45;21.50;69.20
23499;DHT22;11926;48.120;11.562;2023-09-30T16:33:33;21.40;68.30
23499;DHT22;11926;48.120;11.562;2023-09-30T16:36:22;21.40;70.00
23499;DHT22;11926;48.120;11.562;2023-09-30T16:39:09;21.30;70.00
23499;DHT22;11926;48.120;11.562;2023-09-30T16:41:57;21.20;70.30
23499;DHT22;11926;48.120;11.562;2023-09-30T16:45:06;21.10;69.50
23499;DHT22;11926;48.120;11.562;2023-09-30T16:47:54;21.10;69.50
23499;DHT22;11926;48.120;11.562;2023-09-30T16:50:45;20.90;70.30
23499;DHT22;11926;48.120;11.562;2023-09-30T16:53:32;20.90;70.80
23499;DHT22;11926;48.120;11.562;2023-09-30T16:56:20;20.80;71.90
23499;DHT22;11926;48.120;11.562;2023-09-30T16:59:10;20.70;72.10
23499;DHT22;11926;48.120;11.562;2023-09-30T17:01:59;20.60;72.50
23499;DHT22;11926;48.120;11.562;2023-09-30T17:04:49;20.50;72.70
23499;DHT22;11926;48.120;11.562;2023-09-30T17:07:42;20.40;73.00
23499;DHT22;11926;48.120;11.562;2023-09-30T17:10:29;20.30;73.50
23499;DHT22;11926;48.120;11.562;2023-09-30T17:13:17;20.20;73.90
23499;DHT22;11926;48.120;11.562;2023-09-30T17:16:05;20.10;74.00
23499;DHT22;11926;48.120;11.562;2023-09-30T17:18:52;20.00;74.40
23499;DHT22;11926;48.120;11.562;2023-09-30T17:21:40;19.90;74.80
23499;DHT22;11926;48.120;11.562;2023-09-30T17:24:30;19.70;75.00
23499;DHT22;11926;48.120;11.562;2023-09-30T17:27:18;19.70;75.60
23499;DHT22;11926;48.120;11.562;2023-09-30T17:30:07;19.50;76.10